sensor_id;sensor_type;location;lat;lon;timestamp;P1;durP1;ratioP1;P2;durP2;ratioP2
13040;SDS011;6587;42.728;23.288;2023-07-31T00:00:15;5.20;;;4.70;;
13040;SDS011;6587;42.728;23.288;2023-07-31T00:02:42;4.73;;;4.33;;
13040;SDS011;6587;42.728;23.288;2023-07-31T00:05:09;5.60;;;4.97;;
13040;SDS011;6587;42.728;23.288;2023-07-31T00:07:35;6.77;;;4.80;;
13040;SDS011;6587;42.728;23.288;2023-07-31T00:10:04;6.17;;;4.63;;
13040;SDS011;6587;42.728;23.288;2023-07-31T00:12:31;5.47;;;4.30;;
13040;SDS011;6587;42.728;23.288;2023-07-31T00:14:58;5.43;;;4.43;;
13040;SDS011;6587;42.728;23.288;2023-07-31T00:17:25;6.00;;;4.63;;
13040;SDS011;6587;42.728;23.288;2023-07-31T00:19:52;5.27;;;4.37;;
13040;SDS011;6587;42.728;23.288;2023-07-31T00:22:19;5.70;;;4.50;;
13040;SDS011;6587;42.728;23.288;2023-07-31T00:24:45;5.47;;;4.97;;
13040;SDS011;6587;42.728;23.288;2023-07-31T00:27:14;5.47;;;4.97;;
13040;SDS011;6587;42.728;23.288;2023-07-31T00:29:41;5.83;;;5.10;;
13040;SDS011;6587;42.728;23.288;2023-07-31T00:32:08;6.40;;;5.47;;
13040;SDS011;6587;42.728;23.288;2023-07-31T00:34:36;7.93;;;5.67;;
13040;SDS011;6587;42.728;23.288;2023-07-31T00:37:03;5.93;;;5.37;;
13040;SDS011;6587;42.728;23.288;2023-07-31T00:39:31;5.30;;;4.80;;
13040;SDS011;6587;42.728;23.288;2023-07-31T00:41:59;7.07;;;5.83;;
13040;SDS011;6587;42.728;23.288;2023-07-31T00:44:27;6.13;;;5.47;;
13040;SDS011;6587;42.728;23.288;2023-07-31T00:46:54;7.23;;;6.10;;
13040;SDS011;6587;42.728;23.288;2023-07-31T00:49:23;7.57;;;6.13;;
13040;SDS011;6587;42.728;23.288;2023-07-31T00:51:50;6.83;;;6.13;;
13040;SDS011;6587;42.728;23.288;2023-07-31T00:54:17;7.67;;;6.87;;
13040;SDS011;6587;42.728;23.288;2023-07-31T00:56:44;8.27;;;7.37;;
13040;SDS011;6587;42.728;23.288;2023-07-31T00:59:13;8.80;;;7.90;;
13040;SDS011;6587;42.728;23.288;2023-07-31T01:01:42;8.80;;;7.70;;
13040;SDS011;6587;42.728;23.288;2023-07-31T01:04:08;10.13;;;8.67;;
13040;SDS011;6587;42.728;23.288;2023-07-31T01:06:37;11.67;;;8.50;;
13040;SDS011;6587;42.728;23.288;2023-07-31T01:09:11;10.27;;;9.23;;
13040;SDS011;6587;42.728;23.288;2023-07-31T01:11:46;10.13;;;9.13;;
13040;SDS011;6587;42.728;23.288;2023-07-31T01:14:19;11.83;;;10.33;;
13040;SDS011;6587;42.728;23.288;2023-07-31T01:16:47;14.47;;;11.20;;
13040;SDS011;6587;42.728;23.288;2023-07-31T01:19:14;16.00;;;11.53;;
13040;SDS011;6587;42.728;23.288;2023-07-31T01:21:58;14.53;;;12.07;;
13040;SDS011;6587;42.728;23.288;2023-07-31T01:24:41;14.77;;;12.97;;
13040;SDS011;6587;42.728;23.288;2023-07-31T01:27:23;17.93;;;14.37;;
13040;SDS011;6587;42.728;23.288;2023-07-31T01:29:55;17.73;;;14.40;;
13040;SDS011;6587;42.728;23.288;2023-07-31T01:32:35;17.30;;;14.70;;
13040;SDS011;6587;42.728;23.288;2023-07-31T01:35:06;18.70;;;15.37;;
13040;SDS011;6587;42.728;23.288;2023-07-31T01:37:34;20.93;;;16.43;;
13040;SDS011;6587;42.728;23.288;2023-07-31T01:40:01;21.17;;;16.73;;
13040;SDS011;6587;42.728;23.288;2023-07-31T01:42:31;21.17;;;17.73;;
13040;SDS011;6587;42.728;23.288;2023-07-31T01:44:58;22.00;;;17.90;;
13040;SDS011;6587;42.728;23.288;2023-07-31T01:47:24;23.77;;;18.70;;
13040;SDS011;6587;42.728;23.288;2023-07-31T01:49:51;23.73;;;18.60;;
13040;SDS011;6587;42.728;23.288;2023-07-31T01:52:18;25.20;;;18.47;;
13040;SDS011;6587;42.728;23.288;2023-07-31T01:54:45;27.33;;;20.30;;
13040;SDS011;6587;42.728;23.288;2023-07-31T01:57:12;25.13;;;19.73;;
13040;SDS011;6587;42.728;23.288;2023-07-31T01:59:40;28.70;;;20.20;;
13040;SDS011;6587;42.728;23.288;2023-07-31T02:02:07;28.50;;;20.87;;
13040;SDS011;6587;42.728;23.288;2023-07-31T02:04:34;25.97;;;20.57;;
13040;SDS011;6587;42.728;23.288;2023-07-31T02:07:02;31.43;;;21.43;;
13040;SDS011;6587;42.728;23.288;2023-07-31T02:09:29;24.20;;;20.17;;
13040;SDS011;6587;42.728;23.288;2023-07-31T02:11:55;26.50;;;20.83;;
13040;SDS011;6587;42.728;23.288;2023-07-31T02:14:23;28.00;;;21.27;;
13040;SDS011;6587;42.728;23.288;2023-07-31T02:16:52;27.97;;;20.60;;
13040;SDS011;6587;42.728;23.288;2023-07-31T02:19:19;29.50;;;21.07;;
13040;SDS011;6587;42.728;23.288;2023-07-31T02:21:45;26.93;;;20.90;;
13040;SDS011;6587;42.728;23.288;2023-07-31T02:24:12;27.53;;;21.43;;
13040;SDS011;6587;42.728;23.288;2023-07-31T02:26:39;29.63;;;21.40;;
13040;SDS011;6587;42.728;23.288;2023-07-31T02:29:07;31.43;;;21.80;;
13040;SDS011;6587;42.728;23.288;2023-07-31T02:31:34;27.70;;;21.67;;
13040;SDS011;6587;42.728;23.288;2023-07-31T02:34:02;27.30;;;21.73;;
13040;SDS011;6587;42.728;23.288;2023-07-31T02:36:29;32.13;;;22.60;;
13040;SDS011;6587;42.728;23.288;2023-07-31T02:38:56;29.67;;;22.20;;
13040;SDS011;6587;42.728;23.288;2023-07-31T02:41:23;26.40;;;21.10;;
13040;SDS011;6587;42.728;23.288;2023-07-31T02:43:50;29.83;;;22.53;;
13040;SDS011;6587;42.728;23.288;2023-07-31T02:46:17;28.33;;;22.07;;
13040;SDS011;6587;42.728;23.288;2023-07-31T02:48:42;31.00;;;21.97;;
13040;SDS011;6587;42.728;23.288;2023-07-31T02:51:11;29.27;;;22.53;;
13040;SDS011;6587;42.728;23.288;2023-07-31T02:53:38;28.33;;;22.33;;
13040;SDS011;6587;42.728;23.288;2023-07-31T02:56:04;29.87;;;22.90;;
13040;SDS011;6587;42.728;23.288;2023-07-31T02:58:31;29.00;;;23.10;;
13040;SDS011;6587;42.728;23.288;2023-07-31T03:00:58;24.60;;;20.53;;
13040;SDS011;6587;42.728;23.288;2023-07-31T03:03:25;30.60;;;22.13;;
13040;SDS011;6587;42.728;23.288;2023-07-31T03:05:52;29.40;;;22.90;;
13040;SDS011;6587;42.728;23.288;2023-07-31T03:08:21;29.23;;;22.63;;
13040;SDS011;6587;42.728;23.288;2023-07-31T03:10:48;30.33;;;22.87;;
13040;SDS011;6587;42.728;23.288;2023-07-31T03:13:15;34.57;;;24.13;;
13040;SDS011;6587;42.728;23.288;2023-07-31T03:15:42;32.33;;;22.93;;
13040;SDS011;6587;42.728;23.288;2023-07-31T03:18:09;27.80;;;22.87;;
13040;SDS011;6587;42.728;23.288;2023-07-31T03:20:36;25.93;;;21.80;;
13040;SDS011;6587;42.728;23.288;2023-07-31T03:23:02;27.47;;;21.87;;
13040;SDS011;6587;42.728;23.288;2023-07-31T03:25:31;26.50;;;21.03;;
13040;SDS011;6587;42.728;23.288;2023-07-31T03:27:57;28.97;;;21.80;;
13040;SDS011;6587;42.728;23.288;2023-07-31T03:30:25;27.47;;;21.73;;
13040;SDS011;6587;42.728;23.288;2023-07-31T03:32:52;27.00;;;21.63;;
13040;SDS011;6587;42.728;23.288;2023-07-31T03:35:18;29.40;;;22.07;;
13040;SDS011;6587;42.728;23.288;2023-07-31T03:37:45;28.77;;;22.17;;
13040;SDS011;6587;42.728;23.288;2023-07-31T03:40:12;29.00;;;21.80;;
13040;SDS011;6587;42.728;23.288;2023-07-31T03:42:40;33.53;;;23.43;;
13040;SDS011;6587;42.728;23.288;2023-07-31T03:45:08;29.87;;;23.33;;
13040;SDS011;6587;42.728;23.288;2023-07-31T03:47:35;30.10;;;21.93;;
13040;SDS011;6587;42.728;23.288;2023-07-31T03:50:02;31.77;;;22.27;;
13040;SDS011;6587;42.728;23.288;2023-07-31T03:52:29;30.13;;;22.83;;
13040;SDS011;6587;42.728;23.288;2023-07-31T03:54:56;32.73;;;23.00;;
13040;SDS011;6587;42.728;23.288;2023-07-31T03:57:23;32.37;;;23.03;;
13040;SDS011;6587;42.728;23.288;2023-07-31T03:59:51;33.17;;;24.17;;
13040;SDS011;6587;42.728;23.288;2023-07-31T04:02:18;32.23;;;22.80;;
13040;SDS011;6587;42.728;23.288;2023-07-31T04:04:45;32.43;;;23.43;;
13040;SDS011;6587;42.728;23.288;2023-07-31T04:07:12;32.83;;;23.57;;
13040;SDS011;6587;42.728;23.288;2023-07-31T04:09:38;34.63;;;25.03;;
13040;SDS011;6587;42.728;23.288;2023-07-31T04:12:06;33.37;;;22.30;;
13040;SDS011;6587;42.728;23.288;2023-07-31T04:14:33;31.50;;;22.73;;
13040;SDS011;6587;42.728;23.288;2023-07-31T04:17:01;33.13;;;23.80;;
13040;SDS011;6587;42.728;23.288;2023-07-31T04:19:28;31.33;;;23.23;;
13040;SDS011;6587;42.728;23.288;2023-07-31T04:21:55;34.00;;;23.70;;
13040;SDS011;6587;42.728;23.288;2023-07-31T04:24:22;33.43;;;23.70;;
13040;SDS011;6587;42.728;23.288;2023-07-31T04:26:50;34.33;;;23.57;;
13040;SDS011;6587;42.728;23.288;2023-07-31T04:29:17;33.97;;;23.67;;
13040;SDS011;6587;42.728;23.288;2023-07-31T04:31:44;33.83;;;22.33;;
13040;SDS011;6587;42.728;23.288;2023-07-31T04:34:12;32.47;;;22.20;;
13040;SDS011;6587;42.728;23.288;2023-07-31T04:36:39;31.63;;;22.20;;
13040;SDS011;6587;42.728;23.288;2023-07-31T04:39:06;34.13;;;22.20;;
13040;SDS011;6587;42.728;23.288;2023-07-31T04:41:32;36.23;;;24.50;;
13040;SDS011;6587;42.728;23.288;2023-07-31T04:43:59;29.83;;;20.80;;
13040;SDS011;6587;42.728;23.288;2023-07-31T04:46:26;29.30;;;20.93;;
13040;SDS011;6587;42.728;23.288;2023-07-31T04:48:52;31.63;;;22.17;;
13040;SDS011;6587;42.728;23.288;2023-07-31T04:51:20;31.27;;;22.33;;
13040;SDS011;6587;42.728;23.288;2023-07-31T04:53:48;29.10;;;21.00;;
13040;SDS011;6587;42.728;23.288;2023-07-31T04:56:15;31.27;;;21.57;;
13040;SDS011;6587;42.728;23.288;2023-07-31T04:58:42;28.73;;;20.87;;
13040;SDS011;6587;42.728;23.288;2023-07-31T05:01:09;29.77;;;21.67;;
13040;SDS011;6587;42.728;23.288;2023-07-31T05:03:36;30.73;;;22.30;;
13040;SDS011;6587;42.728;23.288;2023-07-31T05:06:03;30.03;;;21.67;;
13040;SDS011;6587;42.728;23.288;2023-07-31T05:08:31;30.93;;;22.30;;
13040;SDS011;6587;42.728;23.288;2023-07-31T05:10:58;29.10;;;22.10;;
13040;SDS011;6587;42.728;23.288;2023-07-31T05:13:25;26.13;;;20.00;;
13040;SDS011;6587;42.728;23.288;2023-07-31T05:15:52;26.50;;;20.53;;
13040;SDS011;6587;42.728;23.288;2023-07-31T05:18:19;27.10;;;19.50;;
13040;SDS011;6587;42.728;23.288;2023-07-31T05:20:46;28.10;;;20.47;;
13040;SDS011;6587;42.728;23.288;2023-07-31T05:23:13;25.57;;;18.40;;
13040;SDS011;6587;42.728;23.288;2023-07-31T05:25:41;25.63;;;18.87;;
13040;SDS011;6587;42.728;23.288;2023-07-31T05:28:08;21.40;;;16.83;;
13040;SDS011;6587;42.728;23.288;2023-07-31T05:30:34;24.63;;;18.00;;
13040;SDS011;6587;42.728;23.288;2023-07-31T05:33:01;22.27;;;17.73;;
13040;SDS011;6587;42.728;23.288;2023-07-31T05:35:28;18.60;;;14.97;;
13040;SDS011;6587;42.728;23.288;2023-07-31T05:37:55;22.60;;;15.75;;
13040;SDS011;6587;42.728;23.288;2023-07-31T05:40:22;17.13;;;13.63;;
13040;SDS011;6587;42.728;23.288;2023-07-31T05:42:50;20.43;;;14.77;;
13040;SDS011;6587;42.728;23.288;2023-07-31T05:45:17;19.17;;;13.80;;
13040;SDS011;6587;42.728;23.288;2023-07-31T05:47:44;20.23;;;13.03;;
13040;SDS011;6587;42.728;23.288;2023-07-31T05:50:10;16.00;;;12.53;;
13040;SDS011;6587;42.728;23.288;2023-07-31T05:52:38;16.83;;;12.97;;
13040;SDS011;6587;42.728;23.288;2023-07-31T05:55:05;15.67;;;11.93;;
13040;SDS011;6587;42.728;23.288;2023-07-31T05:57:33;13.97;;;11.33;;
13040;SDS011;6587;42.728;23.288;2023-07-31T06:00:01;13.45;;;10.57;;
13040;SDS011;6587;42.728;23.288;2023-07-31T06:02:30;12.50;;;10.10;;
13040;SDS011;6587;42.728;23.288;2023-07-31T06:05:01;13.40;;;11.10;;
13040;SDS011;6587;42.728;23.288;2023-07-31T06:07:29;11.47;;;9.63;;
13040;SDS011;6587;42.728;23.288;2023-07-31T06:09:56;13.80;;;9.63;;
13040;SDS011;6587;42.728;23.288;2023-07-31T06:12:28;13.25;;;9.60;;
13040;SDS011;6587;42.728;23.288;2023-07-31T06:14:55;11.00;;;8.68;;
13040;SDS011;6587;42.728;23.288;2023-07-31T06:17:23;10.83;;;8.93;;
13040;SDS011;6587;42.728;23.288;2023-07-31T06:19:51;13.13;;;8.67;;
13040;SDS011;6587;42.728;23.288;2023-07-31T06:22:17;10.23;;;8.23;;
13040;SDS011;6587;42.728;23.288;2023-07-31T06:24:44;10.65;;;8.13;;
13040;SDS011;6587;42.728;23.288;2023-07-31T06:27:11;8.87;;;7.67;;
13040;SDS011;6587;42.728;23.288;2023-07-31T06:29:38;13.33;;;8.10;;
13040;SDS011;6587;42.728;23.288;2023-07-31T06:32:05;10.57;;;7.90;;
13040;SDS011;6587;42.728;23.288;2023-07-31T06:34:34;8.00;;;7.20;;
13040;SDS011;6587;42.728;23.288;2023-07-31T06:37:01;9.02;;;6.90;;
13040;SDS011;6587;42.728;23.288;2023-07-31T06:39:27;9.43;;;6.40;;
13040;SDS011;6587;42.728;23.288;2023-07-31T06:41:54;9.27;;;7.15;;
13040;SDS011;6587;42.728;23.288;2023-07-31T06:44:21;11.88;;;6.88;;
13040;SDS011;6587;42.728;23.288;2023-07-31T06:46:48;8.13;;;6.67;;
13040;SDS011;6587;42.728;23.288;2023-07-31T06:49:15;8.55;;;6.47;;
13040;SDS011;6587;42.728;23.288;2023-07-31T06:51:43;9.40;;;6.40;;
13040;SDS011;6587;42.728;23.288;2023-07-31T06:54:10;8.65;;;5.72;;
13040;SDS011;6587;42.728;23.288;2023-07-31T06:56:37;5.85;;;5.25;;
13040;SDS011;6587;42.728;23.288;2023-07-31T06:59:04;7.00;;;5.32;;
13040;SDS011;6587;42.728;23.288;2023-07-31T07:01:31;8.38;;;6.25;;
13040;SDS011;6587;42.728;23.288;2023-07-31T07:03:57;10.30;;;5.63;;
13040;SDS011;6587;42.728;23.288;2023-07-31T07:06:24;6.93;;;5.55;;
13040;SDS011;6587;42.728;23.288;2023-07-31T07:08:52;5.57;;;4.90;;
13040;SDS011;6587;42.728;23.288;2023-07-31T07:11:19;6.07;;;5.30;;
13040;SDS011;6587;42.728;23.288;2023-07-31T07:13:46;9.03;;;5.27;;
13040;SDS011;6587;42.728;23.288;2023-07-31T07:16:13;6.95;;;5.25;;
13040;SDS011;6587;42.728;23.288;2023-07-31T07:18:40;6.60;;;5.03;;
13040;SDS011;6587;42.728;23.288;2023-07-31T07:21:07;11.18;;;5.65;;
13040;SDS011;6587;42.728;23.288;2023-07-31T07:23:34;6.97;;;5.13;;
13040;SDS011;6587;42.728;23.288;2023-07-31T07:26:02;7.20;;;4.88;;
13040;SDS011;6587;42.728;23.288;2023-07-31T07:28:29;8.32;;;5.65;;
13040;SDS011;6587;42.728;23.288;2023-07-31T07:30:56;6.47;;;4.78;;
13040;SDS011;6587;42.728;23.288;2023-07-31T07:33:23;6.72;;;4.68;;
13040;SDS011;6587;42.728;23.288;2023-07-31T07:35:50;5.80;;;4.75;;
13040;SDS011;6587;42.728;23.288;2023-07-31T07:38:17;7.20;;;4.80;;
13040;SDS011;6587;42.728;23.288;2023-07-31T07:40:44;7.38;;;4.43;;
13040;SDS011;6587;42.728;23.288;2023-07-31T07:43:13;5.90;;;4.68;;
13040;SDS011;6587;42.728;23.288;2023-07-31T07:45:40;7.38;;;4.65;;
13040;SDS011;6587;42.728;23.288;2023-07-31T07:48:07;5.50;;;4.35;;
13040;SDS011;6587;42.728;23.288;2023-07-31T07:50:33;5.10;;;4.03;;
13040;SDS011;6587;42.728;23.288;2023-07-31T07:53:00;4.57;;;4.13;;
13040;SDS011;6587;42.728;23.288;2023-07-31T07:55:27;5.43;;;4.70;;
13040;SDS011;6587;42.728;23.288;2023-07-31T07:57:54;5.25;;;4.45;;
13040;SDS011;6587;42.728;23.288;2023-07-31T08:00:22;7.65;;;4.60;;
13040;SDS011;6587;42.728;23.288;2023-07-31T08:02:49;6.18;;;3.90;;
13040;SDS011;6587;42.728;23.288;2023-07-31T08:05:16;4.38;;;3.45;;
13040;SDS011;6587;42.728;23.288;2023-07-31T08:07:43;5.80;;;4.03;;
13040;SDS011;6587;42.728;23.288;2023-07-31T08:10:09;5.50;;;4.22;;
13040;SDS011;6587;42.728;23.288;2023-07-31T08:12:36;6.18;;;4.55;;
13040;SDS011;6587;42.728;23.288;2023-07-31T08:15:03;6.97;;;4.82;;
13040;SDS011;6587;42.728;23.288;2023-07-31T08:17:32;5.55;;;3.95;;
13040;SDS011;6587;42.728;23.288;2023-07-31T08:19:59;4.45;;;4.05;;
13040;SDS011;6587;42.728;23.288;2023-07-31T08:22:26;5.38;;;4.10;;
13040;SDS011;6587;42.728;23.288;2023-07-31T08:24:53;5.13;;;4.20;;
13040;SDS011;6587;42.728;23.288;2023-07-31T08:27:20;7.68;;;4.70;;
13040;SDS011;6587;42.728;23.288;2023-07-31T08:29:47;4.80;;;3.72;;
13040;SDS011;6587;42.728;23.288;2023-07-31T08:32:14;7.07;;;3.65;;
13040;SDS011;6587;42.728;23.288;2023-07-31T08:34:42;4.95;;;4.43;;
13040;SDS011;6587;42.728;23.288;2023-07-31T08:37:09;5.60;;;4.10;;
13040;SDS011;6587;42.728;23.288;2023-07-31T08:39:36;4.53;;;3.90;;
13040;SDS011;6587;42.728;23.288;2023-07-31T08:42:07;5.38;;;3.90;;
13040;SDS011;6587;42.728;23.288;2023-07-31T08:44:34;8.90;;;4.40;;
13040;SDS011;6587;42.728;23.288;2023-07-31T08:47:02;4.18;;;3.78;;
13040;SDS011;6587;42.728;23.288;2023-07-31T08:49:30;5.50;;;3.80;;
13040;SDS011;6587;42.728;23.288;2023-07-31T08:51:59;6.22;;;3.67;;
13040;SDS011;6587;42.728;23.288;2023-07-31T08:54:26;4.50;;;3.72;;
13040;SDS011;6587;42.728;23.288;2023-07-31T08:56:56;4.35;;;3.70;;
13040;SDS011;6587;42.728;23.288;2023-07-31T08:59:25;3.90;;;3.60;;
13040;SDS011;6587;42.728;23.288;2023-07-31T09:01:55;4.57;;;3.90;;
13040;SDS011;6587;42.728;23.288;2023-07-31T09:04:28;5.15;;;3.75;;
13040;SDS011;6587;42.728;23.288;2023-07-31T09:06:57;7.18;;;4.25;;
13040;SDS011;6587;42.728;23.288;2023-07-31T09:09:29;4.93;;;4.22;;
13040;SDS011;6587;42.728;23.288;2023-07-31T09:11:56;6.35;;;4.25;;
13040;SDS011;6587;42.728;23.288;2023-07-31T09:14:24;4.75;;;4.28;;
13040;SDS011;6587;42.728;23.288;2023-07-31T09:16:52;3.65;;;3.35;;
13040;SDS011;6587;42.728;23.288;2023-07-31T09:19:27;4.90;;;3.80;;
13040;SDS011;6587;42.728;23.288;2023-07-31T09:21:55;3.90;;;3.58;;
13040;SDS011;6587;42.728;23.288;2023-07-31T09:24:27;4.90;;;3.75;;
13040;SDS011;6587;42.728;23.288;2023-07-31T09:26:55;4.57;;;3.88;;
13040;SDS011;6587;42.728;23.288;2023-07-31T09:29:23;4.38;;;3.50;;
13040;SDS011;6587;42.728;23.288;2023-07-31T09:31:51;5.43;;;3.00;;
13040;SDS011;6587;42.728;23.288;2023-07-31T09:34:19;4.45;;;3.17;;
13040;SDS011;6587;42.728;23.288;2023-07-31T09:36:47;5.20;;;3.40;;
13040;SDS011;6587;42.728;23.288;2023-07-31T09:39:16;3.40;;;3.10;;
13040;SDS011;6587;42.728;23.288;2023-07-31T09:41:47;3.45;;;3.15;;
13040;SDS011;6587;42.728;23.288;2023-07-31T09:44:21;3.50;;;3.10;;
13040;SDS011;6587;42.728;23.288;2023-07-31T09:47:03;3.55;;;3.15;;
13040;SDS011;6587;42.728;23.288;2023-07-31T09:49:30;3.65;;;2.85;;
13040;SDS011;6587;42.728;23.288;2023-07-31T09:51:57;7.10;;;4.50;;
13040;SDS011;6587;42.728;23.288;2023-07-31T09:54:24;4.90;;;3.45;;
13040;SDS011;6587;42.728;23.288;2023-07-31T09:56:53;4.15;;;2.83;;
13040;SDS011;6587;42.728;23.288;2023-07-31T09:59:21;4.10;;;2.70;;
13040;SDS011;6587;42.728;23.288;2023-07-31T10:01:48;3.65;;;2.70;;
13040;SDS011;6587;42.728;23.288;2023-07-31T10:04:16;3.35;;;3.05;;
13040;SDS011;6587;42.728;23.288;2023-07-31T10:06:46;4.22;;;2.90;;
13040;SDS011;6587;42.728;23.288;2023-07-31T10:09:15;4.35;;;2.88;;
13040;SDS011;6587;42.728;23.288;2023-07-31T10:11:46;3.25;;;2.88;;
13040;SDS011;6587;42.728;23.288;2023-07-31T10:14:19;2.72;;;2.53;;
13040;SDS011;6587;42.728;23.288;2023-07-31T10:16:47;3.17;;;2.70;;
13040;SDS011;6587;42.728;23.288;2023-07-31T10:19:14;2.45;;;2.22;;
13040;SDS011;6587;42.728;23.288;2023-07-31T10:21:41;2.60;;;2.30;;
13040;SDS011;6587;42.728;23.288;2023-07-31T10:24:08;4.40;;;2.70;;
13040;SDS011;6587;42.728;23.288;2023-07-31T10:26:36;5.90;;;2.78;;
13040;SDS011;6587;42.728;23.288;2023-07-31T10:29:05;3.33;;;2.58;;
13040;SDS011;6587;42.728;23.288;2023-07-31T10:31:35;2.90;;;2.50;;
13040;SDS011;6587;42.728;23.288;2023-07-31T10:34:02;3.13;;;2.80;;
13040;SDS011;6587;42.728;23.288;2023-07-31T10:36:29;5.13;;;2.90;;
13040;SDS011;6587;42.728;23.288;2023-07-31T10:38:56;3.03;;;2.80;;
13040;SDS011;6587;42.728;23.288;2023-07-31T10:41:28;3.08;;;2.78;;
13040;SDS011;6587;42.728;23.288;2023-07-31T10:43:57;3.42;;;2.35;;
13040;SDS011;6587;42.728;23.288;2023-07-31T10:46:24;2.78;;;2.38;;
13040;SDS011;6587;42.728;23.288;2023-07-31T10:48:58;3.22;;;2.80;;
13040;SDS011;6587;42.728;23.288;2023-07-31T10:51:32;2.60;;;2.40;;
13040;SDS011;6587;42.728;23.288;2023-07-31T10:54:10;2.70;;;2.50;;
13040;SDS011;6587;42.728;23.288;2023-07-31T10:56:37;5.85;;;2.22;;
13040;SDS011;6587;42.728;23.288;2023-07-31T10:59:05;3.35;;;2.35;;
13040;SDS011;6587;42.728;23.288;2023-07-31T11:01:50;2.40;;;2.20;;
13040;SDS011;6587;42.728;23.288;2023-07-31T11:04:23;2.53;;;2.30;;
13040;SDS011;6587;42.728;23.288;2023-07-31T11:06:57;3.25;;;2.42;;
13040;SDS011;6587;42.728;23.288;2023-07-31T11:09:27;4.05;;;2.22;;
13040;SDS011;6587;42.728;23.288;2023-07-31T11:11:56;5.90;;;2.47;;
13040;SDS011;6587;42.728;23.288;2023-07-31T11:14:22;2.92;;;2.33;;
13040;SDS011;6587;42.728;23.288;2023-07-31T11:16:49;3.53;;;2.25;;
13040;SDS011;6587;42.728;23.288;2023-07-31T11:19:21;3.25;;;1.98;;
13040;SDS011;6587;42.728;23.288;2023-07-31T11:21:50;3.75;;;2.30;;
13040;SDS011;6587;42.728;23.288;2023-07-31T11:24:18;2.30;;;2.10;;
13040;SDS011;6587;42.728;23.288;2023-07-31T11:26:48;2.70;;;2.30;;
13040;SDS011;6587;42.728;23.288;2023-07-31T11:29:16;3.53;;;2.33;;
13040;SDS011;6587;42.728;23.288;2023-07-31T11:31:44;4.20;;;3.03;;
13040;SDS011;6587;42.728;23.288;2023-07-31T11:34:11;4.10;;;3.30;;
13040;SDS011;6587;42.728;23.288;2023-07-31T11:36:40;6.10;;;3.40;;
13040;SDS011;6587;42.728;23.288;2023-07-31T11:39:07;3.83;;;3.25;;
13040;SDS011;6587;42.728;23.288;2023-07-31T11:41:35;3.72;;;3.00;;
13040;SDS011;6587;42.728;23.288;2023-07-31T11:44:02;4.88;;;2.90;;
13040;SDS011;6587;42.728;23.288;2023-07-31T11:46:30;4.40;;;3.40;;
13040;SDS011;6587;42.728;23.288;2023-07-31T11:48:59;4.30;;;2.97;;
13040;SDS011;6587;42.728;23.288;2023-07-31T11:51:26;5.07;;;3.22;;
13040;SDS011;6587;42.728;23.288;2023-07-31T11:53:57;4.10;;;3.55;;
13040;SDS011;6587;42.728;23.288;2023-07-31T11:56:27;3.83;;;3.33;;
13040;SDS011;6587;42.728;23.288;2023-07-31T11:58:55;5.35;;;4.03;;
13040;SDS011;6587;42.728;23.288;2023-07-31T12:01:26;5.43;;;3.70;;
13040;SDS011;6587;42.728;23.288;2023-07-31T12:03:54;6.65;;;4.13;;
13040;SDS011;6587;42.728;23.288;2023-07-31T12:06:22;5.28;;;4.72;;
13040;SDS011;6587;42.728;23.288;2023-07-31T12:09:02;6.72;;;5.30;;
13040;SDS011;6587;42.728;23.288;2023-07-31T12:11:30;5.57;;;4.82;;
13040;SDS011;6587;42.728;23.288;2023-07-31T12:13:57;6.07;;;4.95;;
13040;SDS011;6587;42.728;23.288;2023-07-31T12:16:26;6.95;;;6.28;;
13040;SDS011;6587;42.728;23.288;2023-07-31T12:18:54;9.70;;;6.00;;
13040;SDS011;6587;42.728;23.288;2023-07-31T12:21:21;6.68;;;5.65;;
13040;SDS011;6587;42.728;23.288;2023-07-31T12:23:48;5.68;;;5.18;;
13040;SDS011;6587;42.728;23.288;2023-07-31T12:26:16;5.47;;;4.97;;
13040;SDS011;6587;42.728;23.288;2023-07-31T12:28:43;6.47;;;4.90;;
13040;SDS011;6587;42.728;23.288;2023-07-31T12:31:11;6.40;;;5.40;;
13040;SDS011;6587;42.728;23.288;2023-07-31T12:33:39;5.20;;;4.70;;
13040;SDS011;6587;42.728;23.288;2023-07-31T12:36:08;5.47;;;4.97;;
13040;SDS011;6587;42.728;23.288;2023-07-31T12:38:36;6.47;;;5.70;;
13040;SDS011;6587;42.728;23.288;2023-07-31T12:41:02;8.27;;;5.75;;
13040;SDS011;6587;42.728;23.288;2023-07-31T12:43:33;8.85;;;5.88;;
13040;SDS011;6587;42.728;23.288;2023-07-31T12:45:59;7.32;;;6.40;;
13040;SDS011;6587;42.728;23.288;2023-07-31T12:48:26;7.80;;;6.05;;
13040;SDS011;6587;42.728;23.288;2023-07-31T12:50:53;6.93;;;6.32;;
13040;SDS011;6587;42.728;23.288;2023-07-31T12:53:20;8.80;;;6.13;;
13040;SDS011;6587;42.728;23.288;2023-07-31T12:55:47;7.18;;;6.47;;
13040;SDS011;6587;42.728;23.288;2023-07-31T12:58:14;9.30;;;6.32;;
13040;SDS011;6587;42.728;23.288;2023-07-31T13:00:42;6.57;;;5.95;;
13040;SDS011;6587;42.728;23.288;2023-07-31T13:03:09;8.43;;;6.00;;
13040;SDS011;6587;42.728;23.288;2023-07-31T13:05:36;8.50;;;5.95;;
13040;SDS011;6587;42.728;23.288;2023-07-31T13:08:03;5.57;;;5.07;;
13040;SDS011;6587;42.728;23.288;2023-07-31T13:10:30;7.57;;;5.57;;
13040;SDS011;6587;42.728;23.288;2023-07-31T13:12:57;7.15;;;5.47;;
13040;SDS011;6587;42.728;23.288;2023-07-31T13:15:23;6.88;;;5.35;;
13040;SDS011;6587;42.728;23.288;2023-07-31T13:17:52;8.05;;;6.85;;
13040;SDS011;6587;42.728;23.288;2023-07-31T13:20:18;9.57;;;8.48;;
13040;SDS011;6587;42.728;23.288;2023-07-31T13:22:45;5.25;;;4.75;;
13040;SDS011;6587;42.728;23.288;2023-07-31T13:25:12;8.00;;;5.53;;
13040;SDS011;6587;42.728;23.288;2023-07-31T13:27:39;7.03;;;5.35;;
13040;SDS011;6587;42.728;23.288;2023-07-31T13:30:06;7.47;;;5.07;;
13040;SDS011;6587;42.728;23.288;2023-07-31T13:32:34;7.97;;;5.40;;
13040;SDS011;6587;42.728;23.288;2023-07-31T13:35:05;8.90;;;5.80;;
13040;SDS011;6587;42.728;23.288;2023-07-31T13:37:32;5.93;;;5.28;;
13040;SDS011;6587;42.728;23.288;2023-07-31T13:39:59;5.35;;;4.85;;
13040;SDS011;6587;42.728;23.288;2023-07-31T13:42:26;7.47;;;4.90;;
13040;SDS011;6587;42.728;23.288;2023-07-31T13:44:53;8.05;;;6.32;;
13040;SDS011;6587;42.728;23.288;2023-07-31T13:47:21;5.43;;;4.88;;
13040;SDS011;6587;42.728;23.288;2023-07-31T13:49:48;7.00;;;5.28;;
13040;SDS011;6587;42.728;23.288;2023-07-31T13:52:16;6.25;;;4.75;;
13040;SDS011;6587;42.728;23.288;2023-07-31T13:54:43;5.30;;;4.50;;
13040;SDS011;6587;42.728;23.288;2023-07-31T13:57:10;5.18;;;4.75;;
13040;SDS011;6587;42.728;23.288;2023-07-31T13:59:37;6.70;;;5.28;;
13040;SDS011;6587;42.728;23.288;2023-07-31T14:02:03;6.03;;;5.20;;
13040;SDS011;6587;42.728;23.288;2023-07-31T14:04:30;7.80;;;5.03;;
13040;SDS011;6587;42.728;23.288;2023-07-31T14:06:57;6.95;;;5.13;;
13040;SDS011;6587;42.728;23.288;2023-07-31T14:09:26;5.13;;;4.63;;
13040;SDS011;6587;42.728;23.288;2023-07-31T14:11:53;6.70;;;5.10;;
13040;SDS011;6587;42.728;23.288;2023-07-31T14:14:20;5.65;;;4.78;;
13040;SDS011;6587;42.728;23.288;2023-07-31T14:16:47;4.80;;;4.40;;
13040;SDS011;6587;42.728;23.288;2023-07-31T14:19:14;5.82;;;4.32;;
13040;SDS011;6587;42.728;23.288;2023-07-31T14:21:41;6.22;;;4.90;;
13040;SDS011;6587;42.728;23.288;2023-07-31T14:24:07;5.20;;;4.70;;
13040;SDS011;6587;42.728;23.288;2023-07-31T14:26:36;5.20;;;4.70;;
13040;SDS011;6587;42.728;23.288;2023-07-31T14:29:02;4.97;;;4.32;;
13040;SDS011;6587;42.728;23.288;2023-07-31T14:31:29;4.93;;;4.43;;
13040;SDS011;6587;42.728;23.288;2023-07-31T14:33:56;4.90;;;4.40;;
13040;SDS011;6587;42.728;23.288;2023-07-31T14:36:23;5.32;;;4.35;;
13040;SDS011;6587;42.728;23.288;2023-07-31T14:38:50;8.00;;;5.57;;
13040;SDS011;6587;42.728;23.288;2023-07-31T14:41:16;7.00;;;5.00;;